Time;durP1;ratioP1;P1;durP2;ratioP2;P2;SDS_P1;SDS_P2;PMS_P1;PMS_P2;Temp;Humidity;BMP_temperature;BMP_pressure;BME280_temperature;BME280_humidity;BME280_pressure;Samples;Min_cycle;Max_cycle;Signal;HPM_P1;HPM_P2
2021/04/28 00:05:29;;;;;;;22.35;10.60;;;;;;;7.08;48.17;98796.72;4201669;84;28630;-86
2021/04/28 00:11:32;;;;;;;22.35;10.35;;;;;;;6.78;48.87;98798.61;4195520;84;28574;-85
2021/04/28 00:17:35;;;;;;;18.55;8.60;;;;;;;6.66;49.46;98795.27;4238438;83;28578;-85
2021/04/28 00:23:38;;;;;;;20.72;10.32;;;;;;;7.17;47.86;98783.41;4238276;83;28583;-84
2021/04/28 00:29:40;;;;;;;20.65;10.18;;;;;;;7.10;47.86;98782.11;4217006;83;28660;-84
2021/04/28 00:35:43;;;;;;;25.23;11.08;;;;;;;7.28;47.37;98779.20;4182090;84;28581;-85
2021/04/28 00:41:46;;;;;;;22.05;9.60;;;;;;;6.68;49.92;98786.52;4196501;84;28631;-85
2021/04/28 00:47:48;;;;;;;23.15;10.28;;;;;;;6.89;49.33;98778.42;4237958;84;28615;-84
2021/04/28 00:53:51;;;;;;;21.48;10.45;;;;;;;6.57;50.34;98783.70;4237734;83;28583;-85
2021/04/28 00:59:53;;;;;;;21.15;9.88;;;;;;;6.13;52.00;98781.53;4241564;84;28585;-84
2021/04/28 01:05:59;;;;;;;25.32;10.90;;;;;;;6.35;50.90;98788.79;4165815;84;28608;-85
2021/04/28 01:12:04;;;;;;;26.40;10.78;;;;;;;6.29;51.25;98790.95;4167967;85;28601;-85
2021/04/28 01:18:09;;;;;;;19.82;9.65;;;;;;;6.17;52.47;98795.30;4228444;84;28660;-84
2021/04/28 01:24:13;;;;;;;23.38;10.40;;;;;;;6.55;50.86;98786.58;4167353;84;28600;-86
2021/04/28 01:30:16;;;;;;;25.10;11.63;;;;;;;6.33;51.79;98793.52;4199611;84;28657;-87
2021/04/28 01:36:22;;;;;;;25.60;10.58;;;;;;;6.10;52.80;98785.97;4175549;84;28645;-84
2021/04/28 01:42:26;;;;;;;18.10;9.75;;;;;;;6.06;53.57;98788.76;4187844;84;28588;-87
2021/04/28 01:48:28;;;;;;;22.15;10.60;;;;;;;6.31;52.24;98782.23;4168172;84;28569;-87
2021/04/28 01:54:32;;;;;;;23.42;10.58;;;;;;;6.06;53.11;98784.75;4224412;83;28583;-86
2021/04/28 02:00:36;;;;;;;24.15;11.12;;;;;;;5.80;54.29;98780.54;4177154;84;28574;-85
2021/04/28 02:06:39;;;;;;;23.05;10.30;;;;;;;5.91;53.26;98775.61;4167594;84;28605;-85
2021/04/28 02:12:44;;;;;;;23.90;10.70;;;;;;;5.87;53.91;98772.53;4193006;84;28550;-87
2021/04/28 02:18:47;;;;;;;22.35;10.58;;;;;;;6.02;53.46;98772.83;4201390;84;44514;-84
2021/04/28 02:24:51;;;;;;;25.30;11.55;;;;;;;5.71;54.74;98767.10;4192910;84;28609;-84
2021/04/28 02:30:55;;;;;;;23.30;9.83;;;;;;;5.71;54.62;98769.77;4186275;84;44447;-84
2021/04/28 02:36:58;;;;;;;22.90;10.88;;;;;;;5.90;54.29;98765.43;4220411;84;44481;-84
2021/04/28 02:43:23;;;;;;;21.93;10.35;;;;;;;6.11;54.20;98767.58;4388359;79;86728;-84
2021/04/28 02:49:28;;;;;;;24.35;11.18;;;;;;;6.05;53.67;98763.91;4289984;81;28610;-84
2021/04/28 02:55:36;;;;;;;21.97;9.98;;;;;;;5.81;54.92;98766.17;4293021;81;28694;-84
2021/04/28 03:01:41;;;;;;;21.07;9.68;;;;;;;6.00;54.27;98763.16;4326766;80;44154;-87
2021/04/28 03:07:43;;;;;;;22.05;11.35;;;;;;;5.94;53.91;98768.52;4313530;80;44446;-86
2021/04/28 03:13:46;;;;;;;23.57;10.90;;;;;;;5.80;55.53;98761.86;4313383;81;28632;-86
2021/04/28 03:19:51;;;;;;;21.90;10.78;;;;;;;5.64;56.43;98767.11;4350044;80;28665;-87
2021/04/28 03:25:54;;;;;;;25.13;10.80;;;;;;;5.49;57.69;98768.64;4329574;81;28566;-86
2021/04/28 03:31:56;;;;;;;22.62;10.40;;;;;;;5.46;58.12;98766.89;4312252;81;44445;-84
2021/04/28 03:38:00;;;;;;;26.68;11.57;;;;;;;5.76;56.59;98773.16;4294470;81;28576;-84
2021/04/28 03:44:02;;;;;;;22.30;11.63;;;;;;;5.45;57.90;98772.72;4227289;83;44462;-84
2021/04/28 03:50:07;;;;;;;23.05;11.20;;;;;;;5.37;58.53;98768.42;4253002;83;44761;-85
2021/04/28 03:56:10;;;;;;;31.27;12.40;;;;;;;6.05;54.93;98777.78;4220745;84;28555;-84
2021/04/28 04:02:15;;;;;;;19.90;11.20;;;;;;;6.04;55.13;98778.28;4224465;84;44443;-85
2021/04/28 04:08:44;;;;;;;27.62;12.25;;;;;;;6.03;55.08;98787.31;4621899;76;85302;-84
2021/04/28 04:14:47;;;;;;;25.85;11.10;;;;;;;5.91;55.13;98792.42;4541684;78;42887;-84
2021/04/28 04:20:50;;;;;;;24.98;10.72;;;;;;;6.08;54.03;98792.03;4515141;78;28597;-85
2021/04/28 04:27:15;;;;;;;20.27;10.70;;;;;;;6.56;52.86;98786.88;4621100;76;85025;-86
2021/04/28 04:33:34;;;;;;;23.80;10.63;;;;;;;7.10;50.94;98793.31;4480887;77;42886;-85
2021/04/28 04:39:55;;;;;;;22.62;10.28;;;;;;;7.04;50.41;98801.67;4490948;79;28593;-86
2021/04/28 04:46:18;;;;;;;23.70;11.20;;;;;;;6.73;51.74;98797.10;4510338;78;28559;-85
2021/04/28 04:52:20;;;;;;;23.42;10.65;;;;;;;7.15;49.83;98792.16;4524754;78;28644;-85
2021/04/28 04:58:23;;;;;;;22.13;9.58;;;;;;;6.98;50.06;98783.83;4486704;79;28643;-84
2021/04/28 05:04:25;;;;;;;17.23;9.43;;;;;;;7.42;49.07;98785.83;4482107;79;28620;-85
2021/04/28 05:10:27;;;;;;;19.73;9.23;;;;;;;7.61;47.86;98784.03;4540522;78;28670;-85
2021/04/28 05:16:32;;;;;;;23.42;10.63;;;;;;;7.62;47.97;98788.34;4512036;78;28613;-85
2021/04/28 05:22:36;;;;;;;28.05;11.15;;;;;;;7.74;48.22;98789.80;4510115;78;28574;-87
2021/04/28 05:28:56;;;;;;;22.80;9.95;;;;;;;7.75;47.82;98788.22;4486697;78;28596;-82
2021/04/28 05:34:58;;;;;;;20.97;10.35;;;;;;;8.43;47.04;98791.08;4479382;77;28630;-83
2021/04/28 05:41:00;;;;;;;19.40;9.58;;;;;;;8.34;46.24;98788.42;4457699;78;28587;-84
2021/04/28 05:47:03;;;;;;;22.85;9.10;;;;;;;8.50;46.43;98792.37;4465438;79;28579;-83
2021/04/28 05:53:06;;;;;;;22.73;10.68;;;;;;;8.56;46.17;98786.12;4479556;79;28586;-83
2021/04/28 05:59:08;;;;;;;18.82;10.25;;;;;;;8.65;45.82;98788.00;4484721;79;28629;-82
2021/04/28 06:05:12;;;;;;;23.05;10.43;;;;;;;8.76;45.65;98789.92;4487872;79;28567;-83
2021/04/28 06:11:14;;;;;;;22.85;10.13;;;;;;;8.56;45.55;98798.72;4484040;78;28614;-83
2021/04/28 06:17:16;;;;;;;22.67;10.18;;;;;;;8.70;45.27;98800.73;4496276;78;28606;-83
2021/04/28 06:23:18;;;;;;;22.62;10.40;;;;;;;9.07;43.41;98789.93;4480136;79;28585;-83
2021/04/28 06:29:21;;;;;;;26.77;10.03;;;;;;;9.62;43.31;98793.45;4511495;78;28588;-83
2021/04/28 06:35:23;;;;;;;22.00;9.98;;;;;;;9.32;43.35;98789.78;4508289;78;28594;-81
2021/04/28 06:41:25;;;;;;;20.68;8.63;;;;;;;9.13;43.45;98793.05;4513940;77;28603;-81
2021/04/28 06:47:27;;;;;;;20.85;9.28;;;;;;;9.57;43.09;98779.93;4495897;78;28569;-82
2021/04/28 06:53:29;;;;;;;20.97;8.60;;;;;;;9.32;42.76;98766.15;4482954;78;28657;-82
2021/04/28 06:59:31;;;;;;;16.87;7.97;;;;;;;10.25;41.81;98761.59;4495793;78;28684;-84
2021/04/28 07:05:34;;;;;;;16.57;8.30;;;;;;;9.87;40.84;98760.23;4381636;80;28597;-82
2021/04/28 07:11:36;;;;;;;16.95;8.35;;;;;;;10.22;41.72;98758.05;4398643;80;29012;-84
2021/04/28 07:17:38;;;;;;;16.67;7.83;;;;;;;10.92;41.11;98747.36;4340397;80;28646;-82
2021/04/28 07:23:40;;;;;;;13.68;6.55;;;;;;;11.04;39.40;98750.52;4354070;81;28566;-82
2021/04/28 07:29:42;;;;;;;13.80;6.75;;;;;;;11.23;39.11;98745.22;4364995;80;28647;-84
2021/04/28 07:35:44;;;;;;;17.40;6.90;;;;;;;11.44;38.29;98752.30;4373268;80;29050;-84
2021/04/28 07:41:48;;;;;;;11.30;5.87;;;;;;;11.37;38.19;98752.46;4354072;80;28595;-84
2021/04/28 07:47:50;;;;;;;14.03;6.25;;;;;;;11.23;37.08;98750.60;4295604;81;28610;-91
2021/04/28 07:53:53;;;;;;;12.85;6.87;;;;;;;11.95;36.35;98746.91;4380855;80;28572;-92
2021/04/28 07:59:55;;;;;;;17.23;7.17;;;;;;;12.26;36.76;98748.71;4389032;80;28586;-91
2021/04/28 08:05:57;;;;;;;13.48;6.12;;;;;;;12.40;37.18;98745.13;4387776;79;28571;-88
2021/04/28 08:11:59;;;;;;;15.25;6.60;;;;;;;12.46;36.28;98750.56;4384498;79;28549;-90
2021/04/28 08:18:03;;;;;;;16.45;5.67;;;;;;;12.61;36.87;98743.19;4359334;80;28595;-88
2021/04/28 08:24:06;;;;;;;16.10;6.22;;;;;;;12.89;35.74;98737.30;4298750;81;28702;-89
2021/04/28 08:30:11;;;;;;;10.90;5.15;;;;;;;12.52;36.55;98735.54;4357579;80;28568;-88
2021/04/28 08:36:14;;;;;;;9.77;4.57;;;;;;;13.10;35.68;98740.49;4348331;81;28570;-87
2021/04/28 08:42:17;;;;;;;14.80;4.78;;;;;;;13.64;35.18;98733.41;4356366;80;28587;-88
2021/04/28 08:48:20;;;;;;;11.03;4.20;;;;;;;13.68;34.79;98721.55;4384177;80;28595;-89
2021/04/28 08:54:24;;;;;;;7.60;4.28;;;;;;;14.08;34.04;98720.71;4340782;80;28619;-87
2021/04/28 09:00:26;;;;;;;12.68;5.33;;;;;;;14.48;34.40;98720.63;4330548;80;28645;-90
2021/04/28 09:06:34;;;;;;;12.25;5.15;;;;;;;14.27;34.43;98727.03;4341827;82;28559;-88
2021/04/28 09:12:38;;;;;;;10.72;4.92;;;;;;;14.26;34.57;98715.94;4352396;81;28582;-88
2021/04/28 09:18:43;;;;;;;11.75;5.20;;;;;;;14.94;34.09;98711.59;4365421;81;29004;-88
2021/04/28 09:24:54;;;;;;;9.05;4.85;;;;;;;14.57;33.94;98701.19;4356069;81;28603;-88
2021/04/28 09:31:12;;;;;;;10.80;4.12;;;;;;;14.69;33.64;98689.58;4588316;76;85325;-87
2021/04/28 09:37:16;;;;;;;7.83;3.85;;;;;;;15.30;33.59;98685.36;4504719;78;28608;-87
2021/04/28 09:43:19;;;;;;;8.70;4.70;;;;;;;15.41;34.17;98669.10;4502704;78;28570;-89
2021/04/28 09:49:21;;;;;;;9.28;4.58;;;;;;;15.31;33.16;98663.95;4482361;78;28557;-85
2021/04/28 09:55:24;;;;;;;8.30;4.20;;;;;;;15.17;32.69;98650.70;4495444;78;28595;-85
2021/04/28 10:01:32;;;;;;;8.33;4.12;;;;;;;15.21;32.69;98645.00;4509083;78;28592;-87
2021/04/28 10:07:34;;;;;;;8.65;4.08;;;;;;;15.90;31.97;98640.58;4505858;78;28570;-89
2021/04/28 10:13:36;;;;;;;8.63;4.62;;;;;;;16.00;31.37;98628.34;4493702;78;28616;-88
2021/04/28 10:19:40;;;;;;;6.47;3.42;;;;;;;16.01;31.52;98621.03;4500386;78;28597;-88
2021/04/28 10:25:49;;;;;;;9.55;3.27;;;;;;;16.23;30.99;98608.44;4514311;77;28635;-87
2021/04/28 10:31:54;;;;;;;5.90;3.40;;;;;;;16.44;30.72;98596.94;4496936;78;28602;-89
2021/04/28 10:37:59;;;;;;;8.18;3.30;;;;;;;16.46;30.35;98592.59;4520131;78;28566;-90
2021/04/28 10:44:06;;;;;;;5.40;2.98;;;;;;;16.54;29.43;98582.48;4494483;78;28673;-90
2021/04/28 10:50:23;;;;;;;5.50;3.00;;;;;;;16.80;29.24;98586.91;4509768;78;28587;-88
2021/04/28 10:56:27;;;;;;;5.60;3.20;;;;;;;17.02;29.52;98570.75;4479685;79;28550;-90
2021/04/28 11:02:30;;;;;;;6.58;3.40;;;;;;;17.25;28.62;98567.28;4394589;80;28620;-88
2021/04/28 11:08:32;;;;;;;5.58;2.85;;;;;;;17.06;28.45;98550.09;4379345;80;28563;-94
2021/04/28 11:14:39;;;;;;;6.33;3.20;;;;;;;17.39;27.64;98558.45;4394036;80;28575;-91
2021/04/28 11:20:41;;;;;;;10.30;3.00;;;;;;;17.47;28.50;98548.84;4336759;80;28579;-88
2021/04/28 11:26:51;;;;;;;5.08;2.85;;;;;;;17.75;28.47;98543.64;4384826;81;28665;-89
2021/04/28 11:33:27;;;;;;;6.70;2.70;;;;;;;17.64;28.24;98545.66;4357918;81;28645;-89
2021/04/28 11:39:43;;;;;;;;;;;;;;;17.53;27.61;98538.19;4341080;81;28654;-88
2021/04/28 11:45:46;;;;;;;;;;;;;;;18.11;27.31;98535.02;4359644;81;20254;-88
2021/04/28 11:51:55;;;;;;;5.12;2.50;;;;;;;17.62;27.44;98524.76;4367394;81;20175;-88
2021/04/28 11:58:19;;;;;;;6.10;2.90;;;;;;;18.42;27.48;98518.81;4364561;81;28564;-87
2021/04/28 12:10:57;;;;;;;4.85;3.17;;;;;;;18.04;26.29;98505.47;4598210;76;85285;-88
2021/04/28 12:16:59;;;;;;;4.33;2.58;;;;;;;18.11;26.04;98493.69;4480525;79;28588;-89
2021/04/28 12:23:03;;;;;;;5.33;2.80;;;;;;;18.79;27.19;98486.62;4389026;80;28601;-83
2021/04/28 12:29:06;;;;;;;6.45;3.08;;;;;;;18.45;26.05;98482.30;4321330;81;28621;-89
2021/04/28 12:35:21;;;;;;;4.87;2.50;;;;;;;18.78;26.00;98465.12;4371097;81;28572;-87
2021/04/28 12:41:24;;;;;;;6.03;2.93;;;;;;;18.45;25.60;98465.97;4366290;80;28612;-89
2021/04/28 12:47:30;;;;;;;4.62;3.20;;;;;;;18.55;25.79;98458.17;4359002;81;28610;-89
2021/04/28 12:53:36;;;;;;;7.12;3.50;;;;;;;18.48;25.66;98449.03;4347232;80;28572;-87
2021/04/28 13:06:46;;;;;;;8.15;3.52;;;;;;;18.79;24.78;98437.60;4350425;80;28564;-87
2021/04/28 13:12:52;;;;;;;8.60;3.45;;;;;;;19.07;25.14;98435.48;4375640;80;28943;-88
2021/04/28 13:18:57;;;;;;;10.93;3.37;;;;;;;18.62;24.91;98421.85;4336767;80;28634;-92
2021/04/28 13:25:01;;;;;;;7.78;3.12;;;;;;;19.10;25.31;98419.89;4339919;81;28622;-91
2021/04/28 13:31:16;;;;;;;5.75;3.62;;;;;;;19.13;24.51;98415.75;4360549;81;28605;-91
2021/04/28 13:37:19;;;;;;;8.58;3.98;;;;;;;19.13;24.88;98411.67;4362395;80;28610;-90
2021/04/28 13:43:21;;;;;;;7.03;3.65;;;;;;;18.80;24.59;98400.30;4347224;80;28609;-88
2021/04/28 13:49:25;;;;;;;6.17;3.25;;;;;;;18.59;24.93;98397.95;4358083;80;28568;-86
2021/04/28 13:55:27;;;;;;;5.83;3.65;;;;;;;18.69;24.69;98394.23;4351663;80;28571;-86
2021/04/28 14:01:29;;;;;;;6.50;3.30;;;;;;;19.17;24.45;98392.26;4388598;80;28674;-85
2021/04/28 14:07:31;;;;;;;10.15;3.75;;;;;;;19.55;24.92;98385.73;4393608;80;28589;-86
2021/04/28 14:13:35;;;;;;;7.22;3.85;;;;;;;18.87;24.93;98381.62;4393900;80;28559;-86
2021/04/28 14:19:37;;;;;;;6.78;3.20;;;;;;;19.22;24.87;98379.33;4344535;80;28616;-86
2021/04/28 14:25:41;;;;;;;8.35;3.47;;;;;;;18.75;24.25;98372.61;4383747;80;28656;-88
2021/04/28 14:31:43;;;;;;;7.80;3.80;;;;;;;18.94;24.75;98371.69;4393806;80;28603;-86
2021/04/28 14:37:46;;;;;;;8.40;3.77;;;;;;;18.81;24.79;98359.70;4372084;81;28657;-84
2021/04/28 14:43:48;;;;;;;6.87;3.83;;;;;;;19.43;24.75;98350.28;4336024;81;28650;-84
2021/04/28 14:49:50;;;;;;;6.20;3.87;;;;;;;18.62;24.57;98352.43;4387207;80;28563;-85
2021/04/28 14:55:52;;;;;;;9.88;3.58;;;;;;;19.67;24.65;98340.19;4381499;79;28601;-84
2021/04/28 15:01:54;;;;;;;6.37;3.72;;;;;;;19.39;24.16;98334.27;4313910;81;28615;-84
2021/04/28 15:07:57;;;;;;;7.05;3.50;;;;;;;19.23;24.88;98337.34;4369792;80;28626;-85
2021/04/28 15:14:00;;;;;;;7.67;4.33;;;;;;;19.94;24.71;98331.10;4388721;80;28616;-84
2021/04/28 15:20:06;;;;;;;9.73;4.20;;;;;;;18.87;24.41;98332.61;4390287;80;28626;-85
2021/04/28 15:26:09;;;;;;;7.33;4.22;;;;;;;19.19;24.54;98326.00;4382677;80;28578;-84
2021/04/28 15:32:15;;;;;;;7.80;4.28;;;;;;;18.92;24.95;98319.44;4373764;80;28563;-86
2021/04/28 15:38:19;;;;;;;7.40;3.80;;;;;;;19.29;24.66;98309.97;4364819;80;28593;-85
2021/04/28 15:44:27;;;;;;;7.70;3.72;;;;;;;19.14;25.08;98309.20;4310330;80;28567;-85
2021/04/28 15:50:29;;;;;;;6.80;3.72;;;;;;;19.22;24.65;98291.32;4373318;80;28664;-85
2021/04/28 15:56:33;;;;;;;7.03;4.05;;;;;;;19.57;24.99;98294.32;4363342;80;28602;-85
2021/04/28 16:02:35;;;;;;;7.03;3.90;;;;;;;19.04;24.76;98293.09;4357281;80;28628;-85
2021/04/28 16:08:38;;;;;;;7.78;4.20;;;;;;;19.15;24.90;98286.84;4368082;80;28571;-85
2021/04/28 16:14:40;;;;;;;6.58;3.50;;;;;;;18.82;25.25;98280.98;4343725;80;28583;-84
